createdAt,value
2018-10-07T00:00:18.951Z,13.20
2018-10-07T00:02:50.699Z,13.10
2018-10-07T00:05:22.665Z,13.10
2018-10-07T00:07:55.401Z,13.10
2018-10-07T00:10:27.173Z,13.10
2018-10-07T00:12:58.893Z,13.10
2018-10-07T00:15:30.745Z,13.10
2018-10-07T00:18:02.701Z,13.10
2018-10-07T00:20:34.507Z,13.10
2018-10-07T00:23:06.400Z,13.00
2018-10-07T00:25:38.870Z,13.00
2018-10-07T00:28:10.539Z,13.00
2018-10-07T00:30:42.026Z,13.00
2018-10-07T00:33:13.655Z,13.00
2018-10-07T00:35:45.592Z,12.90
2018-10-07T00:38:17.150Z,12.90
2018-10-07T00:40:49.780Z,12.90
2018-10-07T00:43:21.405Z,12.90
2018-10-07T00:45:53.305Z,12.90
2018-10-07T00:48:25.596Z,12.90
2018-10-07T00:50:57.287Z,12.90
2018-10-07T00:53:28.901Z,12.90
2018-10-07T00:56:00.830Z,12.90
2018-10-07T00:58:32.559Z,12.80
2018-10-07T01:01:04.159Z,12.80
2018-10-07T01:03:35.787Z,12.80
2018-10-07T01:06:07.741Z,12.70
2018-10-07T01:08:40.355Z,12.80
2018-10-07T01:11:12.240Z,12.80
2018-10-07T01:13:43.971Z,12.70
2018-10-07T01:16:16.693Z,12.70
2018-10-07T01:18:48.319Z,12.70
2018-10-07T01:21:20.329Z,12.70
2018-10-07T01:23:52.113Z,12.70
2018-10-07T01:26:23.648Z,12.70
2018-10-07T01:28:55.459Z,12.70
2018-10-07T01:31:27.255Z,12.60
2018-10-07T01:33:59.679Z,12.60
2018-10-07T01:36:31.548Z,12.60
2018-10-07T01:39:03.427Z,12.60
2018-10-07T01:41:35.481Z,12.60
2018-10-07T01:44:07.339Z,12.60
2018-10-07T01:46:39.030Z,12.60
2018-10-07T01:49:10.829Z,12.60
2018-10-07T01:51:42.611Z,12.50
2018-10-07T01:54:14.305Z,12.50
2018-10-07T01:56:46.133Z,12.50
2018-10-07T01:59:17.927Z,12.50
2018-10-07T02:01:49.763Z,12.50
2018-10-07T02:04:21.372Z,12.50
2018-10-07T02:06:53.273Z,12.50
2018-10-07T02:09:25.178Z,12.50
2018-10-07T02:11:57.161Z,12.50
2018-10-07T02:14:28.851Z,12.50
2018-10-07T02:17:00.767Z,12.40
2018-10-07T02:19:32.387Z,12.40
2018-10-07T02:22:04.145Z,12.50
2018-10-07T02:24:35.731Z,12.40
2018-10-07T02:27:07.307Z,12.40
2018-10-07T02:29:38.989Z,12.40
2018-10-07T02:32:10.651Z,12.40
2018-10-07T02:34:42.340Z,12.40
2018-10-07T02:37:14.053Z,12.30
2018-10-07T02:39:45.806Z,12.30
2018-10-07T02:42:18.081Z,12.30
2018-10-07T02:44:50.127Z,12.30
2018-10-07T02:47:22.785Z,12.30
2018-10-07T02:49:54.434Z,12.30
2018-10-07T02:52:31.303Z,12.30
2018-10-07T02:55:03.178Z,12.30
2018-10-07T02:57:34.741Z,12.30
2018-10-07T03:00:06.534Z,12.30
2018-10-07T03:02:38.212Z,12.30
2018-10-07T03:05:09.856Z,12.20
2018-10-07T03:07:42.220Z,12.20
2018-10-07T03:10:14.004Z,12.20
2018-10-07T03:12:45.661Z,12.20
2018-10-07T03:15:17.367Z,12.20
2018-10-07T03:17:49.003Z,12.20
2018-10-07T03:20:20.700Z,12.20
2018-10-07T03:22:53.021Z,12.20
2018-10-07T03:25:24.710Z,12.10
2018-10-07T03:27:56.423Z,12.10
2018-10-07T03:30:28.310Z,12.10
2018-10-07T03:33:01.024Z,12.10
2018-10-07T03:35:32.633Z,12.10
2018-10-07T03:38:04.262Z,12.10
2018-10-07T03:40:36.180Z,12.00
2018-10-07T03:43:07.694Z,12.00
2018-10-07T03:45:39.390Z,12.00
2018-10-07T03:48:12.033Z,12.00
2018-10-07T03:50:43.589Z,12.00
2018-10-07T03:53:15.425Z,11.90
2018-10-07T03:55:46.942Z,11.90
2018-10-07T03:58:18.561Z,11.90
2018-10-07T04:00:50.881Z,11.90
2018-10-07T04:03:22.788Z,11.90
2018-10-07T04:05:54.439Z,11.80
2018-10-07T04:08:26.078Z,11.80
2018-10-07T04:10:57.917Z,11.80
2018-10-07T04:13:30.217Z,11.80
2018-10-07T04:16:01.869Z,11.80
2018-10-07T04:18:33.693Z,11.70
2018-10-07T04:21:06.508Z,11.70
2018-10-07T04:23:38.251Z,11.70
2018-10-07T04:26:09.902Z,11.70
2018-10-07T04:28:41.943Z,11.60
2018-10-07T04:31:13.781Z,11.60
2018-10-07T04:33:45.497Z,11.60
2018-10-07T04:36:17.203Z,11.60
2018-10-07T04:38:48.853Z,11.50
2018-10-07T04:41:20.517Z,11.50
2018-10-07T04:43:52.123Z,11.50
2018-10-07T04:46:23.941Z,11.50
2018-10-07T04:48:55.503Z,11.50
2018-10-07T04:51:27.190Z,11.50
2018-10-07T04:53:58.831Z,11.40
2018-10-07T04:56:30.516Z,11.40
2018-10-07T04:59:03.160Z,11.40
2018-10-07T05:01:35.722Z,11.40
2018-10-07T05:04:07.496Z,11.40
2018-10-07T05:06:39.475Z,11.40
2018-10-07T05:09:12.208Z,11.30
2018-10-07T05:11:44.748Z,11.30
2018-10-07T05:14:16.859Z,11.30
2018-10-07T05:16:49.265Z,11.20
2018-10-07T05:19:21.315Z,11.20
2018-10-07T05:21:53.025Z,11.20
2018-10-07T05:24:24.881Z,11.20
2018-10-07T05:26:56.491Z,11.20
2018-10-07T05:29:28.249Z,11.20
2018-10-07T05:32:00.847Z,11.20
2018-10-07T05:34:32.441Z,11.10
2018-10-07T05:37:04.129Z,11.10
2018-10-07T05:39:35.785Z,11.10
2018-10-07T05:42:07.462Z,11.00
2018-10-07T05:44:39.257Z,11.00
2018-10-07T05:47:11.866Z,11.00
2018-10-07T05:49:43.465Z,11.00
2018-10-07T05:52:15.162Z,11.00
2018-10-07T05:54:46.922Z,11.00
2018-10-07T05:57:18.840Z,11.00
2018-10-07T05:59:51.492Z,11.00
2018-10-07T06:02:24.899Z,10.90
2018-10-07T06:04:58.583Z,10.90
2018-10-07T06:07:32.790Z,10.90
2018-10-07T06:10:05.711Z,10.90
2018-10-07T06:12:37.494Z,10.90
2018-10-07T06:15:46.714Z,10.90
2018-10-07T06:18:19.266Z,10.80
2018-10-07T06:20:51.028Z,10.80
2018-10-07T06:23:22.828Z,10.80
2018-10-07T06:25:55.272Z,10.80
2018-10-07T06:28:26.673Z,10.80
2018-10-07T06:30:58.635Z,10.80
2018-10-07T06:33:30.380Z,10.80
2018-10-07T06:36:02.228Z,10.70
2018-10-07T06:38:34.012Z,10.70
2018-10-07T06:41:05.884Z,10.70
2018-10-07T06:43:38.588Z,10.70
2018-10-07T06:46:10.322Z,10.70
2018-10-07T06:48:42.161Z,10.70
2018-10-07T06:51:13.848Z,10.70
2018-10-07T06:53:45.747Z,10.70
2018-10-07T06:56:17.561Z,10.70
2018-10-07T06:58:49.389Z,10.70
2018-10-07T07:01:21.104Z,10.70
2018-10-07T07:03:53.233Z,10.70
2018-10-07T07:06:25.055Z,10.70
2018-10-07T07:08:57.095Z,10.70
2018-10-07T07:11:28.797Z,10.70
2018-10-07T07:14:00.644Z,10.70
2018-10-07T07:16:32.398Z,10.70
2018-10-07T07:19:05.094Z,10.70
2018-10-07T07:21:36.906Z,10.70
2018-10-07T07:24:08.794Z,10.70
2018-10-07T07:26:40.605Z,10.60
2018-10-07T07:29:12.317Z,10.60
2018-10-07T07:31:43.919Z,10.60
2018-10-07T07:34:15.596Z,10.60
2018-10-07T07:36:47.325Z,10.60
2018-10-07T07:39:19.196Z,10.60
2018-10-07T07:41:50.879Z,10.70
2018-10-07T07:44:22.521Z,10.70
2018-10-07T07:46:54.524Z,10.70
2018-10-07T07:49:27.189Z,10.80
2018-10-07T07:51:59.181Z,10.70
2018-10-07T07:54:31.008Z,10.80
2018-10-07T07:57:02.745Z,10.80
2018-10-07T07:59:34.595Z,10.80
2018-10-07T08:02:06.499Z,10.80
2018-10-07T08:04:39.779Z,10.90
2018-10-07T08:07:12.423Z,10.90
2018-10-07T08:09:44.472Z,10.90
2018-10-07T08:12:16.422Z,11.00
2018-10-07T08:14:48.418Z,11.00
2018-10-07T08:17:20.502Z,11.00
2018-10-07T08:19:52.807Z,11.10
2018-10-07T08:22:25.025Z,11.10
2018-10-07T08:24:56.807Z,11.20
2018-10-07T08:27:31.053Z,11.20
2018-10-07T08:30:03.346Z,11.30
2018-10-07T08:32:35.245Z,11.30
2018-10-07T08:35:06.836Z,11.40
2018-10-07T08:37:38.812Z,11.40
2018-10-07T08:40:10.761Z,11.40
2018-10-07T08:42:43.507Z,11.50
2018-10-07T08:45:15.847Z,11.60
2018-10-07T08:47:47.527Z,11.60
2018-10-07T08:50:19.253Z,11.60
2018-10-07T08:52:50.946Z,11.70
2018-10-07T08:55:22.620Z,11.70
2018-10-07T08:57:54.280Z,11.70
2018-10-07T09:00:26.067Z,11.80
2018-10-07T09:02:57.896Z,11.80
2018-10-07T09:05:29.601Z,11.80
2018-10-07T09:08:02.062Z,11.80
2018-10-07T09:10:33.958Z,11.90
2018-10-07T09:13:05.749Z,11.90
2018-10-07T09:15:37.741Z,11.90
2018-10-07T09:18:09.439Z,12.00
2018-10-07T09:20:41.781Z,12.10
2018-10-07T09:23:13.480Z,12.20
2018-10-07T09:25:45.363Z,12.40
2018-10-07T09:28:17.697Z,12.30
2018-10-07T09:30:49.635Z,12.30
2018-10-07T09:33:21.275Z,12.30
2018-10-07T09:35:53.421Z,12.30
2018-10-07T09:38:25.923Z,12.30
2018-10-07T09:40:57.592Z,12.30
2018-10-07T09:43:29.272Z,12.40
2018-10-07T09:46:01.092Z,12.40
2018-10-07T09:48:33.169Z,12.40
2018-10-07T09:51:05.149Z,12.40
2018-10-07T09:53:37.493Z,12.50
2018-10-07T09:56:09.343Z,12.50
2018-10-07T09:58:41.180Z,12.50
2018-10-07T10:01:12.954Z,12.50
2018-10-07T10:03:44.921Z,12.50
2018-10-07T10:06:16.899Z,12.50
2018-10-07T10:11:47.979Z,12.60
2018-10-07T10:14:19.752Z,12.60
2018-10-07T10:17:01.917Z,12.60
2018-10-07T10:19:42.266Z,12.70
2018-10-07T10:22:38.640Z,12.70
2018-10-07T10:26:17.767Z,12.70
2018-10-07T10:28:58.743Z,12.80
2018-10-07T10:33:10.315Z,12.80
2018-10-07T10:36:06.113Z,12.90
2018-10-07T10:38:49.768Z,12.90
2018-10-07T10:41:29.876Z,13.00
2018-10-07T10:44:04.462Z,13.00
2018-10-07T10:46:44.351Z,13.00
2018-10-07T10:49:23.405Z,13.10
2018-10-07T10:52:15.687Z,13.10
2018-10-07T10:54:57.095Z,13.10
2018-10-07T10:57:40.103Z,13.10
2018-10-07T11:00:16.778Z,13.10
2018-10-07T11:03:12.901Z,13.20
2018-10-07T11:05:51.126Z,13.20
2018-10-07T11:08:38.155Z,13.30
2018-10-07T11:11:28.634Z,13.30
2018-10-07T11:14:13.817Z,13.30
2018-10-07T11:16:58.203Z,13.40
2018-10-07T11:21:47.164Z,13.40
2018-10-07T11:24:25.879Z,13.40
2018-10-07T11:27:06.527Z,13.50
2018-10-07T11:30:22.482Z,13.50
2018-10-07T11:34:03.110Z,13.50
2018-10-07T11:37:11.724Z,13.50
2018-10-07T11:44:12.755Z,13.50
2018-10-07T11:49:09.296Z,13.50
2018-10-07T11:51:51.201Z,13.60
2018-10-07T11:55:01.766Z,13.60
2018-10-07T11:57:33.580Z,13.60
2018-10-07T12:00:06.004Z,13.70
2018-10-07T12:02:38.104Z,13.70
2018-10-07T12:05:10.261Z,13.70
2018-10-07T12:07:42.224Z,13.80
2018-10-07T12:10:13.842Z,13.80
2018-10-07T12:12:45.770Z,13.80
2018-10-07T12:15:17.628Z,13.80
2018-10-07T12:17:49.358Z,13.80
2018-10-07T12:20:21.308Z,13.80
2018-10-07T12:22:53.085Z,13.80
2018-10-07T12:25:24.869Z,13.80
2018-10-07T12:27:56.638Z,13.80
2018-10-07T12:30:28.232Z,13.80
2018-10-07T12:33:01.012Z,13.80
2018-10-07T12:35:32.668Z,13.80
2018-10-07T12:38:12.515Z,13.80
2018-10-07T12:40:45.146Z,13.80
2018-10-07T12:43:17.173Z,13.80
2018-10-07T12:45:48.870Z,13.80
2018-10-07T12:48:20.814Z,13.70
2018-10-07T12:50:52.815Z,13.70
2018-10-07T12:53:24.643Z,13.70
2018-10-07T12:55:56.404Z,13.80
2018-10-07T12:58:29.816Z,13.80
2018-10-07T13:01:01.742Z,13.90
2018-10-07T13:03:33.656Z,13.90
2018-10-07T13:06:05.339Z,13.90
2018-10-07T13:08:38.752Z,13.90
2018-10-07T13:11:11.532Z,14.30
2018-10-07T13:13:43.520Z,14.70
2018-10-07T13:16:15.379Z,15.10
2018-10-07T13:18:46.920Z,14.90
2018-10-07T13:21:18.845Z,14.60
2018-10-07T13:23:50.583Z,14.50
2018-10-07T13:26:22.506Z,14.50
2018-10-07T13:28:54.501Z,14.40
2018-10-07T13:31:26.481Z,14.40
2018-10-07T13:33:58.361Z,14.40
2018-10-07T13:36:30.495Z,14.40
2018-10-07T13:39:02.209Z,14.30
2018-10-07T13:41:34.442Z,14.30
2018-10-07T13:44:06.057Z,14.20
2018-10-07T13:46:37.957Z,14.20
2018-10-07T13:49:09.702Z,14.20
2018-10-07T13:51:41.626Z,14.10
2018-10-07T13:54:14.236Z,14.10
2018-10-07T13:56:45.914Z,14.10
2018-10-07T13:59:17.645Z,14.10
2018-10-07T14:01:49.511Z,14.10
2018-10-07T14:04:22.204Z,14.00
2018-10-07T14:06:54.099Z,14.00
2018-10-07T14:09:26.130Z,14.00
2018-10-07T14:11:57.770Z,14.00
2018-10-07T14:14:29.634Z,14.00
2018-10-07T14:17:02.342Z,14.00
2018-10-07T14:19:34.257Z,14.00
2018-10-07T14:22:05.927Z,14.00
2018-10-07T14:24:37.861Z,14.00
2018-10-07T14:27:09.540Z,14.00
2018-10-07T14:29:56.282Z,14.00
2018-10-07T14:32:27.887Z,14.00
2018-10-07T14:34:59.789Z,13.90
2018-10-07T14:37:31.349Z,14.00
2018-10-07T14:40:03.987Z,13.90
2018-10-07T14:42:35.869Z,14.00
2018-10-07T14:45:07.691Z,13.90
2018-10-07T14:47:39.692Z,14.00
2018-10-07T14:50:16.263Z,14.00
2018-10-07T14:52:48.717Z,13.90
2018-10-07T14:55:20.954Z,13.90
2018-10-07T14:57:52.985Z,13.90
2018-10-07T15:00:26.096Z,13.90
2018-10-07T15:02:59.425Z,13.90
2018-10-07T15:05:31.706Z,13.90
2018-10-07T15:08:03.338Z,13.90
2018-10-07T15:10:35.249Z,13.90
2018-10-07T15:13:07.235Z,13.90
2018-10-07T15:15:39.192Z,13.90
2018-10-07T15:18:11.050Z,13.80
2018-10-07T15:20:43.133Z,13.80
2018-10-07T15:23:14.672Z,13.80
2018-10-07T15:25:46.608Z,13.80
2018-10-07T15:28:18.466Z,13.80
2018-10-07T15:30:50.713Z,13.80
2018-10-07T15:33:22.873Z,13.80
2018-10-07T15:35:55.156Z,13.80
2018-10-07T15:38:27.068Z,13.80
2018-10-07T15:40:59.057Z,13.70
2018-10-07T15:43:30.758Z,13.70
2018-10-07T15:46:02.653Z,13.70
2018-10-07T15:48:34.701Z,13.70
2018-10-07T15:51:06.528Z,13.70
2018-10-07T15:53:38.511Z,13.70
2018-10-07T15:56:10.245Z,13.70
2018-10-07T15:58:42.036Z,13.70
2018-10-07T16:01:13.723Z,13.70
2018-10-07T16:03:45.458Z,13.70
2018-10-07T16:06:17.317Z,13.70
2018-10-07T16:08:49.084Z,13.60
2018-10-07T16:11:21.175Z,13.60
2018-10-07T16:13:53.568Z,13.60
2018-10-07T16:16:25.363Z,13.60
2018-10-07T16:18:57.233Z,13.60
2018-10-07T16:21:28.988Z,13.60
2018-10-07T16:24:01.013Z,13.60
2018-10-07T16:26:32.859Z,13.60
2018-10-07T16:29:04.585Z,13.60
2018-10-07T16:31:36.240Z,13.50
2018-10-07T16:34:08.375Z,13.50
2018-10-07T16:36:40.043Z,13.50
2018-10-07T16:39:12.266Z,13.50
2018-10-07T16:41:44.327Z,13.50
2018-10-07T16:44:16.087Z,13.50
2018-10-07T16:46:47.701Z,13.50
2018-10-07T16:49:19.337Z,13.40
2018-10-07T16:51:51.186Z,13.40
2018-10-07T16:54:23.201Z,13.50
2018-10-07T16:56:55.817Z,13.40
2018-10-07T16:59:27.891Z,13.40
2018-10-07T17:01:59.598Z,13.40
2018-10-07T17:04:31.495Z,13.40
2018-10-07T17:07:03.153Z,13.40
2018-10-07T17:09:34.952Z,13.40
2018-10-07T17:12:06.738Z,13.30
2018-10-07T17:14:38.482Z,13.30
2018-10-07T17:17:10.415Z,13.30
2018-10-07T17:19:42.469Z,13.30
2018-10-07T17:22:14.249Z,13.30
2018-10-07T17:24:46.411Z,13.30
2018-10-07T17:27:18.585Z,13.30
2018-10-07T17:29:50.490Z,13.30
2018-10-07T17:32:22.397Z,13.30
2018-10-07T17:34:54.005Z,13.20
2018-10-07T17:37:25.731Z,13.20
2018-10-07T17:39:57.588Z,13.20
2018-10-07T17:42:29.571Z,13.20
2018-10-07T17:45:01.499Z,13.20
2018-10-07T17:47:33.482Z,13.10
2018-10-07T17:50:05.884Z,13.10
2018-10-07T17:52:37.565Z,13.10
2018-10-07T17:55:09.392Z,13.10
2018-10-07T17:57:42.120Z,13.10
2018-10-07T18:00:15.403Z,13.00
2018-10-07T18:02:47.216Z,13.00
2018-10-07T18:05:19.410Z,13.00
2018-10-07T18:07:54.018Z,13.00
2018-10-07T18:10:25.888Z,13.00
2018-10-07T18:12:58.252Z,13.00
2018-10-07T18:15:29.933Z,13.00
2018-10-07T18:18:01.640Z,13.00
2018-10-07T18:20:34.256Z,13.00
2018-10-07T18:23:05.877Z,12.90
2018-10-07T18:25:37.895Z,12.90
2018-10-07T18:28:10.551Z,12.90
2018-10-07T18:30:42.926Z,12.90
2018-10-07T18:33:15.485Z,12.90
2018-10-07T18:35:47.102Z,12.90
2018-10-07T18:38:18.947Z,12.90
2018-10-07T18:40:51.196Z,12.80
2018-10-07T18:43:22.932Z,12.80
2018-10-07T18:45:54.826Z,12.80
2018-10-07T18:48:26.537Z,12.80
2018-10-07T18:50:58.429Z,12.70
2018-10-07T18:53:30.323Z,12.80
2018-10-07T18:56:02.022Z,12.70
2018-10-07T18:58:33.859Z,12.70
2018-10-07T19:01:05.908Z,12.70
2018-10-07T19:03:38.115Z,12.70
2018-10-07T19:06:10.728Z,12.60
2018-10-07T19:08:42.396Z,12.60
2018-10-07T19:11:14.247Z,12.60
2018-10-07T19:14:49.369Z,12.60
2018-10-07T19:17:21.132Z,12.50
2018-10-07T19:19:52.962Z,12.50
2018-10-07T19:22:24.671Z,12.50
2018-10-07T19:24:56.566Z,12.50
2018-10-07T19:27:28.190Z,12.50
2018-10-07T19:30:00.050Z,12.50
2018-10-07T19:32:31.986Z,12.50
2018-10-07T19:35:03.771Z,12.40
2018-10-07T19:37:35.669Z,12.40
2018-10-07T19:40:08.157Z,12.40
2018-10-07T19:42:39.814Z,12.40
2018-10-07T19:45:11.772Z,12.30
2018-10-07T19:47:43.473Z,12.30
2018-10-07T19:50:15.426Z,12.30
2018-10-07T19:52:47.434Z,12.30
2018-10-07T19:55:19.429Z,12.30
2018-10-07T19:57:52.825Z,12.30
2018-10-07T20:00:24.970Z,12.20
2018-10-07T20:02:56.844Z,12.20
2018-10-07T20:05:28.692Z,12.20
2018-10-07T20:08:00.799Z,12.20
2018-10-07T20:10:32.312Z,12.20
2018-10-07T20:13:04.045Z,12.20
2018-10-07T20:15:35.788Z,12.20
2018-10-07T20:18:08.456Z,12.10
2018-10-07T20:20:41.200Z,12.10
2018-10-07T20:23:12.776Z,12.10
2018-10-07T20:25:44.517Z,12.10
2018-10-07T20:28:16.413Z,12.10
2018-10-07T20:30:48.056Z,12.10
2018-10-07T20:33:19.741Z,12.10
2018-10-07T20:35:51.386Z,12.00
2018-10-07T20:38:23.266Z,12.00
2018-10-07T20:40:54.985Z,12.00
2018-10-07T20:43:26.853Z,12.00
2018-10-07T20:45:58.561Z,12.00
2018-10-07T20:48:33.552Z,12.00
2018-10-07T20:51:05.360Z,12.00
2018-10-07T20:53:37.914Z,11.90
2018-10-07T20:56:09.692Z,11.90
2018-10-07T20:58:41.388Z,11.90
2018-10-07T21:01:13.038Z,11.90
2018-10-07T21:03:44.829Z,11.90
2018-10-07T21:06:16.516Z,11.90
2018-10-07T21:08:48.281Z,11.90
2018-10-07T21:11:19.814Z,11.90
2018-10-07T21:13:51.895Z,11.90
2018-10-07T21:16:23.913Z,11.80
2018-10-07T21:18:56.569Z,11.80
2018-10-07T21:21:28.277Z,11.80
2018-10-07T21:24:00.064Z,11.80
2018-10-07T21:26:32.081Z,11.80
2018-10-07T21:29:03.823Z,11.80
2018-10-07T21:31:35.748Z,11.80
2018-10-07T21:34:07.683Z,11.70
2018-10-07T21:36:39.557Z,11.70
2018-10-07T21:39:11.927Z,11.70
2018-10-07T21:41:43.843Z,11.70
2018-10-07T21:44:15.715Z,11.60
2018-10-07T21:46:47.844Z,11.60
2018-10-07T21:49:19.535Z,11.60
2018-10-07T21:51:51.378Z,11.60
2018-10-07T21:54:23.142Z,11.60
2018-10-07T21:56:55.237Z,11.60
2018-10-07T21:59:26.957Z,11.50
2018-10-07T22:01:58.825Z,11.50
2018-10-07T22:04:30.856Z,11.50
2018-10-07T22:07:02.904Z,11.50
2018-10-07T22:09:34.615Z,11.50
2018-10-07T22:12:06.582Z,11.50
2018-10-07T22:14:38.335Z,11.50
2018-10-07T22:17:10.431Z,11.50
2018-10-07T22:19:42.173Z,11.40
2018-10-07T22:22:14.294Z,11.40
2018-10-07T22:24:46.004Z,11.40
2018-10-07T22:27:17.957Z,11.40
2018-10-07T22:29:50.001Z,11.40
2018-10-07T22:32:21.631Z,11.40
2018-10-07T22:34:53.669Z,11.30
2018-10-07T22:37:25.367Z,11.30
2018-10-07T22:39:57.063Z,11.30
2018-10-07T22:42:28.721Z,11.30
2018-10-07T22:45:00.666Z,11.30
2018-10-07T22:47:32.369Z,11.30
2018-10-07T22:50:04.187Z,11.30
2018-10-07T22:52:36.043Z,11.20
2018-10-07T22:55:07.844Z,11.20
2018-10-07T22:57:39.545Z,11.20
2018-10-07T23:00:12.172Z,11.20
2018-10-07T23:02:44.420Z,11.20
2018-10-07T23:05:16.238Z,11.20
2018-10-07T23:07:48.429Z,11.20
2018-10-07T23:10:20.362Z,11.10
2018-10-07T23:12:52.085Z,11.10
2018-10-07T23:15:23.879Z,11.10
2018-10-07T23:17:56.456Z,11.10
2018-10-07T23:20:28.517Z,11.10
2018-10-07T23:23:00.366Z,11.10
2018-10-07T23:25:33.014Z,11.10
2018-10-07T23:28:04.576Z,11.00
2018-10-07T23:30:36.531Z,11.00
2018-10-07T23:33:08.486Z,11.00
2018-10-07T23:35:40.102Z,11.00
2018-10-07T23:38:11.953Z,11.00
2018-10-07T23:40:45.313Z,11.00
2018-10-07T23:43:17.242Z,11.00
2018-10-07T23:45:48.978Z,11.00
2018-10-07T23:48:20.972Z,10.90
2018-10-07T23:50:52.928Z,10.90
2018-10-07T23:53:24.644Z,10.90
2018-10-07T23:55:56.368Z,10.90
2018-10-07T23:58:28.171Z,10.90
